createdAt,value
2018-12-13T00:00:52.198Z,81.18
2018-12-13T00:03:22.219Z,81.39
2018-12-13T00:05:52.029Z,81.75
2018-12-13T00:08:21.744Z,81.16
2018-12-13T00:10:51.642Z,81.04
2018-12-13T00:13:21.561Z,81.29
2018-12-13T00:15:51.364Z,81.22
2018-12-13T00:18:21.836Z,81.12
2018-12-13T00:20:52.377Z,81.14
2018-12-13T00:23:22.119Z,81.21
2018-12-13T00:25:51.947Z,81.61
2018-12-13T00:28:21.735Z,81.03
2018-12-13T00:30:51.464Z,81.67
2018-12-13T00:33:21.133Z,81.65
2018-12-13T00:35:50.916Z,81.71
2018-12-13T00:38:20.657Z,81.49
2018-12-13T00:40:50.420Z,81.88
2018-12-13T00:43:20.164Z,81.63
2018-12-13T00:45:49.972Z,81.65
2018-12-13T00:48:20.028Z,81.31
2018-12-13T00:50:49.864Z,81.73
2018-12-13T00:53:19.828Z,81.62
2018-12-13T00:55:49.644Z,81.26
2018-12-13T00:58:19.385Z,81.91
2018-12-13T01:00:49.150Z,81.75
2018-12-13T01:03:19.001Z,81.64
2018-12-13T01:05:48.766Z,81.67
2018-12-13T01:08:18.848Z,81.96
2018-12-13T01:10:48.728Z,81.62
2018-12-13T01:13:18.517Z,81.77
2018-12-13T01:15:48.458Z,81.50
2018-12-13T01:18:18.294Z,81.13
2018-12-13T01:20:48.121Z,80.75
2018-12-13T01:23:18.023Z,81.80
2018-12-13T01:25:47.857Z,81.88
2018-12-13T01:28:17.604Z,81.76
2018-12-13T01:30:47.310Z,81.61
2018-12-13T01:33:17.423Z,81.88
2018-12-13T01:35:47.096Z,81.31
2018-12-13T01:38:16.788Z,81.28
2018-12-13T01:40:46.535Z,81.29
2018-12-13T01:43:16.391Z,81.62
2018-12-13T01:45:46.181Z,80.98
2018-12-13T01:48:15.886Z,81.57
2018-12-13T01:50:45.632Z,81.61
2018-12-13T01:53:15.370Z,81.72
2018-12-13T01:55:45.309Z,81.81
2018-12-13T01:58:15.244Z,81.53
2018-12-13T02:00:45.219Z,82.00
2018-12-13T02:03:15.080Z,81.75
2018-12-13T02:05:44.800Z,82.08
2018-12-13T02:08:14.544Z,82.17
2018-12-13T02:10:44.473Z,82.17
2018-12-13T02:13:14.243Z,82.36
2018-12-13T02:15:44.147Z,82.18
2018-12-13T02:18:13.944Z,82.72
2018-12-13T02:20:43.852Z,82.66
2018-12-13T02:23:13.703Z,82.62
2018-12-13T02:25:43.357Z,82.33
2018-12-13T02:28:13.127Z,82.70
2018-12-13T02:30:43.026Z,82.82
2018-12-13T02:33:12.907Z,82.70
2018-12-13T02:35:42.652Z,82.94
2018-12-13T02:38:12.475Z,82.45
2018-12-13T02:40:42.197Z,83.00
2018-12-13T02:43:11.948Z,83.14
2018-12-13T02:45:41.735Z,83.05
2018-12-13T02:48:11.516Z,82.59
2018-12-13T02:50:41.198Z,83.06
2018-12-13T02:53:10.980Z,83.45
2018-12-13T02:55:41.561Z,83.46
2018-12-13T02:58:11.463Z,83.39
2018-12-13T03:00:41.326Z,83.61
2018-12-13T03:03:11.150Z,83.08
2018-12-13T03:05:40.920Z,82.94
2018-12-13T03:08:10.748Z,83.05
2018-12-13T03:10:40.405Z,82.68
2018-12-13T03:13:10.228Z,82.47
2018-12-13T03:15:39.954Z,82.48
2018-12-13T03:18:10.288Z,82.39
2018-12-13T03:20:40.075Z,82.39
2018-12-13T03:23:09.961Z,82.40
2018-12-13T03:25:39.699Z,83.01
2018-12-13T03:28:09.536Z,83.02
2018-12-13T03:30:39.289Z,82.76
2018-12-13T03:33:09.244Z,82.98
2018-12-13T03:35:39.068Z,82.68
2018-12-13T03:38:08.902Z,82.85
2018-12-13T03:40:38.749Z,82.96
2018-12-13T03:43:08.506Z,83.17
2018-12-13T03:45:38.501Z,83.01
2018-12-13T03:48:08.210Z,82.72
2018-12-13T03:50:38.146Z,83.05
2018-12-13T03:53:07.879Z,82.93
2018-12-13T03:55:37.744Z,83.32
2018-12-13T03:58:07.581Z,83.29
2018-12-13T04:00:37.294Z,83.13
2018-12-13T04:03:07.055Z,83.45
2018-12-13T04:05:37.009Z,83.19
2018-12-13T04:08:07.177Z,83.30
2018-12-13T04:10:36.980Z,83.50
2018-12-13T04:13:06.656Z,83.94
2018-12-13T04:15:36.833Z,84.67
2018-12-13T04:18:06.696Z,84.01
2018-12-13T04:20:36.455Z,83.86
2018-12-13T04:23:06.262Z,83.79
2018-12-13T04:25:36.052Z,83.94
2018-12-13T04:28:05.973Z,83.90
2018-12-13T04:30:35.764Z,84.41
2018-12-13T04:33:05.467Z,84.83
2018-12-13T04:35:35.710Z,84.81
2018-12-13T04:38:05.484Z,84.84
2018-12-13T04:40:35.225Z,84.53
2018-12-13T04:43:05.005Z,84.46
2018-12-13T04:45:34.950Z,84.72
2018-12-13T04:48:04.945Z,84.88
2018-12-13T04:50:34.672Z,84.89
2018-12-13T04:53:04.721Z,85.26
2018-12-13T04:55:34.405Z,84.88
2018-12-13T04:58:04.200Z,84.82
2018-12-13T05:00:33.888Z,84.81
2018-12-13T05:03:04.636Z,84.70
2018-12-13T05:05:34.372Z,85.23
2018-12-13T05:08:04.253Z,85.27
2018-12-13T05:10:52.376Z,84.95
2018-12-13T05:13:22.185Z,84.76
2018-12-13T05:15:51.956Z,84.96
2018-12-13T05:18:21.642Z,85.69
2018-12-13T05:20:51.288Z,85.14
2018-12-13T05:23:20.958Z,85.06
2018-12-13T05:25:50.707Z,85.10
2018-12-13T05:28:20.497Z,84.95
2018-12-13T05:30:50.277Z,84.71
2018-12-13T05:33:20.815Z,84.31
2018-12-13T05:35:50.597Z,84.78
2018-12-13T05:38:20.356Z,84.96
2018-12-13T05:40:50.090Z,84.79
2018-12-13T05:43:19.801Z,84.92
2018-12-13T05:45:49.572Z,84.30
2018-12-13T05:48:19.423Z,84.04
2018-12-13T05:50:49.160Z,84.22
2018-12-13T05:53:18.913Z,84.35
2018-12-13T05:55:48.876Z,84.36
2018-12-13T05:58:18.558Z,84.89
2018-12-13T06:00:48.289Z,84.47
2018-12-13T06:03:18.138Z,84.09
2018-12-13T06:05:48.071Z,84.45
2018-12-13T06:08:17.940Z,84.14
2018-12-13T06:10:47.736Z,84.26
2018-12-13T06:13:17.547Z,84.33
2018-12-13T06:18:36.253Z,84.28
2018-12-13T06:21:11.726Z,84.40
2018-12-13T06:23:38.038Z,84.31
2018-12-13T06:26:07.835Z,84.53
2018-12-13T06:28:37.608Z,84.71
2018-12-13T06:31:07.344Z,84.33
2018-12-13T06:33:37.313Z,84.50
2018-12-13T06:36:06.981Z,83.78
2018-12-13T06:38:36.694Z,82.83
2018-12-13T06:41:06.625Z,83.33
2018-12-13T06:43:36.299Z,83.01
2018-12-13T06:46:06.235Z,83.00
2018-12-13T06:48:35.889Z,82.97
2018-12-13T06:51:05.706Z,82.74
2018-12-13T06:53:35.760Z,83.33
2018-12-13T06:56:05.663Z,83.50
2018-12-13T06:58:35.359Z,83.38
2018-12-13T07:01:05.594Z,82.89
2018-12-13T07:03:35.264Z,83.39
2018-12-13T07:06:05.085Z,82.86
2018-12-13T07:08:34.991Z,82.97
2018-12-13T07:11:05.375Z,83.14
2018-12-13T07:13:35.141Z,82.42
2018-12-13T07:16:06.023Z,83.17
2018-12-13T07:18:35.776Z,82.70
2018-12-13T07:21:05.661Z,83.52
2018-12-13T07:23:35.320Z,82.70
2018-12-13T07:26:05.129Z,83.05
2018-12-13T07:28:34.958Z,82.63
2018-12-13T07:31:09.602Z,82.97
2018-12-13T07:33:39.276Z,83.14
2018-12-13T07:36:09.036Z,83.29
2018-12-13T07:38:38.874Z,82.59
2018-12-13T07:41:08.664Z,82.74
2018-12-13T07:43:38.332Z,83.31
2018-12-13T07:46:07.997Z,82.70
2018-12-13T07:48:37.639Z,83.02
2018-12-13T07:51:07.379Z,82.99
2018-12-13T07:53:37.154Z,82.93
2018-12-13T07:56:06.921Z,82.92
2018-12-13T07:58:36.498Z,82.97
2018-12-13T08:01:06.569Z,82.53
2018-12-13T08:03:36.264Z,82.27
2018-12-13T08:06:08.305Z,82.15
2018-12-13T08:08:37.995Z,82.49
2018-12-13T08:11:08.099Z,82.31
2018-12-13T08:13:37.860Z,82.32
2018-12-13T08:16:07.629Z,81.94
2018-12-13T08:18:37.383Z,81.66
2018-12-13T08:21:07.057Z,81.23
2018-12-13T08:23:36.797Z,81.01
2018-12-13T08:26:06.712Z,80.92
2018-12-13T08:28:36.612Z,80.61
2018-12-13T08:31:06.263Z,81.73
2018-12-13T08:33:36.137Z,80.30
2018-12-13T08:36:06.030Z,79.42
2018-12-13T08:38:35.827Z,79.76
2018-12-13T08:41:05.466Z,79.86
2018-12-13T08:43:35.380Z,79.91
2018-12-13T08:46:06.322Z,79.99
2018-12-13T08:48:36.811Z,79.45
2018-12-13T08:51:06.473Z,79.96
2018-12-13T08:53:36.299Z,79.68
2018-12-13T08:56:06.083Z,79.65
2018-12-13T08:58:35.711Z,79.29
2018-12-13T09:01:05.759Z,79.58
2018-12-13T09:03:36.053Z,78.90
2018-12-13T09:06:06.894Z,79.02
2018-12-13T09:08:36.628Z,78.15
2018-12-13T09:11:06.383Z,78.63
2018-12-13T09:13:36.099Z,79.14
2018-12-13T09:16:05.938Z,79.13
2018-12-13T09:18:35.883Z,78.32
2018-12-13T09:21:05.521Z,78.67
2018-12-13T09:23:42.221Z,77.76
2018-12-13T09:26:11.941Z,78.09
2018-12-13T09:28:41.875Z,76.71
2018-12-13T09:31:11.536Z,77.54
2018-12-13T09:33:41.262Z,77.16
2018-12-13T09:36:11.069Z,77.40
2018-12-13T09:38:41.009Z,76.88
2018-12-13T09:41:10.785Z,76.39
2018-12-13T09:43:40.604Z,76.18
2018-12-13T09:46:10.571Z,75.81
2018-12-13T09:48:40.367Z,75.62
2018-12-13T09:51:10.051Z,75.28
2018-12-13T09:53:39.864Z,75.64
2018-12-13T09:56:09.824Z,74.94
2018-12-13T09:58:39.791Z,74.20
2018-12-13T10:01:09.521Z,73.75
2018-12-13T10:03:39.178Z,73.24
2018-12-13T10:06:09.349Z,72.66
2018-12-13T10:08:39.052Z,72.11
2018-12-13T10:11:08.744Z,72.23
2018-12-13T10:13:38.491Z,71.30
2018-12-13T10:16:08.176Z,72.13
2018-12-13T10:18:37.829Z,71.59
2018-12-13T10:21:07.417Z,71.52
2018-12-13T10:23:37.106Z,71.88
2018-12-13T10:26:06.947Z,70.95
2018-12-13T10:28:36.743Z,73.89
2018-12-13T10:31:06.366Z,72.81
2018-12-13T10:33:36.030Z,70.38
2018-12-13T10:36:05.909Z,71.11
2018-12-13T10:38:35.693Z,67.28
2018-12-13T10:41:05.707Z,66.71
2018-12-13T10:43:35.405Z,67.00
2018-12-13T10:46:05.172Z,66.66
2018-12-13T10:48:34.957Z,67.23
2018-12-13T10:51:05.130Z,66.73
2018-12-13T10:53:35.275Z,67.17
2018-12-13T10:56:05.103Z,67.00
2018-12-13T10:58:35.090Z,66.17
2018-12-13T11:01:09.793Z,66.40
2018-12-13T11:03:39.680Z,66.42
2018-12-13T11:06:09.415Z,66.12
2018-12-13T11:08:39.527Z,65.92
2018-12-13T11:11:09.229Z,65.90
2018-12-13T11:13:39.015Z,65.72
2018-12-13T11:16:09.011Z,65.71
2018-12-13T11:18:39.521Z,65.13
2018-12-13T11:21:09.924Z,65.39
2018-12-13T11:23:39.777Z,64.89
2018-12-13T11:26:09.615Z,64.96
2018-12-13T11:29:57.405Z,64.76
2018-12-13T11:32:27.252Z,64.53
2018-12-13T11:34:57.049Z,64.11
2018-12-13T11:37:26.785Z,64.38
2018-12-13T11:39:56.639Z,64.34
2018-12-13T11:42:26.361Z,64.31
2018-12-13T11:44:56.229Z,64.06
2018-12-13T11:47:26.124Z,63.71
2018-12-13T11:49:56.186Z,63.41
2018-12-13T11:52:25.945Z,63.45
2018-12-13T11:54:56.577Z,62.97
2018-12-13T11:57:26.728Z,63.12
2018-12-13T11:59:57.245Z,62.48
2018-12-13T12:02:26.968Z,62.45
2018-12-13T12:04:56.888Z,62.26
2018-12-13T12:07:26.577Z,62.78
2018-12-13T12:09:56.475Z,62.08
2018-12-13T12:12:26.333Z,62.05
2018-12-13T12:14:56.264Z,62.83
2018-12-13T12:17:26.007Z,62.59
2018-12-13T12:19:56.103Z,62.79
2018-12-13T12:22:25.859Z,62.96
2018-12-13T12:24:55.883Z,62.97
2018-12-13T12:27:25.760Z,63.01
2018-12-13T12:29:55.738Z,62.68
2018-12-13T12:32:25.777Z,62.57
2018-12-13T12:34:55.688Z,62.47
2018-12-13T12:37:25.658Z,62.33
2018-12-13T12:39:56.228Z,62.38
2018-12-13T12:42:25.936Z,62.69
2018-12-13T12:44:55.951Z,62.29
2018-12-13T12:47:25.884Z,62.44
2018-12-13T12:49:55.768Z,61.92
2018-12-13T12:52:25.537Z,62.52
2018-12-13T12:54:55.472Z,62.58
2018-12-13T12:57:25.531Z,62.38
2018-12-13T12:59:55.880Z,62.81
2018-12-13T13:02:25.830Z,62.83
2018-12-13T13:04:55.613Z,62.75
2018-12-13T13:07:25.733Z,62.44
2018-12-13T13:09:55.645Z,62.23
2018-12-13T13:12:25.392Z,61.80
2018-12-13T13:14:55.212Z,62.06
2018-12-13T13:17:25.092Z,61.29
2018-12-13T13:19:54.928Z,60.61
2018-12-13T13:22:24.586Z,60.72
2018-12-13T13:24:54.360Z,59.81
2018-12-13T13:27:24.273Z,60.58
2018-12-13T13:29:54.117Z,61.21
2018-12-13T13:32:23.920Z,60.18
2018-12-13T13:34:53.892Z,60.16
2018-12-13T13:37:23.654Z,60.40
2018-12-13T13:39:53.545Z,60.11
2018-12-13T13:42:23.589Z,60.30
2018-12-13T13:44:57.501Z,60.95
2018-12-13T13:47:27.472Z,61.36
2018-12-13T13:49:57.225Z,61.65
2018-12-13T13:52:27.072Z,62.00
2018-12-13T13:54:57.256Z,61.76
2018-12-13T13:57:27.288Z,62.49
2018-12-13T13:59:57.167Z,62.89
2018-12-13T14:02:26.961Z,63.14
2018-12-13T14:04:56.720Z,63.18
2018-12-13T14:07:26.593Z,63.29
2018-12-13T14:09:56.329Z,63.50
2018-12-13T14:12:26.260Z,63.47
2018-12-13T14:14:56.334Z,63.40
2018-12-13T14:17:25.989Z,63.56
2018-12-13T14:19:55.678Z,63.78
2018-12-13T14:22:25.481Z,63.86
2018-12-13T14:24:55.261Z,63.40
2018-12-13T14:27:25.260Z,63.10
2018-12-13T14:29:55.004Z,63.33
2018-12-13T14:32:24.642Z,63.55
2018-12-13T14:34:57.438Z,63.79
2018-12-13T14:37:26.393Z,64.38
2018-12-13T14:39:56.556Z,64.45
2018-12-13T14:42:26.899Z,64.19
2018-12-13T14:44:56.885Z,64.61
2018-12-13T14:47:26.657Z,65.22
2018-12-13T14:49:56.617Z,64.90
2018-12-13T14:52:26.464Z,64.67
2018-12-13T14:54:56.494Z,64.72
2018-12-13T14:57:26.401Z,65.26
2018-12-13T14:59:56.364Z,64.99
2018-12-13T15:02:26.181Z,65.47
2018-12-13T15:04:56.206Z,65.04
2018-12-13T15:07:25.972Z,65.22
2018-12-13T15:09:55.720Z,65.67
2018-12-13T15:12:25.460Z,65.22
2018-12-13T15:14:55.226Z,65.11
2018-12-13T15:17:25.231Z,65.27
2018-12-13T15:19:55.083Z,65.75
2018-12-13T15:22:24.765Z,65.86
2018-12-13T15:24:54.670Z,65.63
2018-12-13T15:27:24.552Z,65.90
2018-12-13T15:29:54.280Z,65.55
2018-12-13T15:32:24.757Z,65.66
2018-12-13T15:34:54.477Z,65.76
2018-12-13T15:37:24.152Z,66.11
2018-12-13T15:39:57.226Z,65.91
2018-12-13T15:42:26.029Z,66.12
2018-12-13T15:44:55.763Z,66.24
2018-12-13T15:47:25.548Z,66.52
2018-12-13T15:49:55.721Z,66.02
2018-12-13T15:52:25.536Z,66.81
2018-12-13T15:54:55.420Z,66.15
2018-12-13T15:57:25.262Z,66.82
2018-12-13T15:59:54.989Z,66.97
2018-12-13T16:02:24.824Z,67.34
2018-12-13T16:04:54.557Z,67.32
2018-12-13T16:07:24.380Z,68.20
2018-12-13T16:09:54.152Z,67.78
2018-12-13T16:12:24.019Z,67.75
2018-12-13T16:14:53.844Z,67.85
2018-12-13T16:17:23.758Z,68.06
2018-12-13T16:19:53.608Z,67.60
2018-12-13T16:22:23.420Z,68.44
2018-12-13T16:24:53.162Z,68.92
2018-12-13T16:27:22.925Z,68.72
2018-12-13T16:29:52.963Z,69.06
2018-12-13T16:32:22.853Z,68.66
2018-12-13T16:34:52.656Z,69.45
2018-12-13T16:37:22.557Z,69.00
2018-12-13T16:39:52.528Z,69.24
2018-12-13T16:42:22.432Z,69.62
2018-12-13T16:44:54.178Z,69.11
2018-12-13T16:47:23.887Z,69.87
2018-12-13T16:49:53.544Z,69.26
2018-12-13T16:52:23.445Z,69.34
2018-12-13T16:54:53.193Z,69.94
2018-12-13T16:57:23.032Z,70.19
2018-12-13T16:59:52.941Z,70.11
2018-12-13T17:02:22.726Z,70.44
2018-12-13T17:04:52.688Z,70.40
2018-12-13T17:07:23.207Z,70.55
2018-12-13T17:09:53.049Z,71.17
2018-12-13T17:12:22.961Z,71.47
2018-12-13T17:14:52.872Z,71.20
2018-12-13T17:17:22.900Z,71.80
2018-12-13T17:19:52.761Z,71.49
2018-12-13T17:22:22.713Z,71.44
2018-12-13T17:24:53.400Z,71.17
2018-12-13T17:27:23.220Z,71.26
2018-12-13T17:29:52.942Z,71.38
2018-12-13T17:32:22.852Z,71.42
2018-12-13T17:34:52.570Z,71.17
2018-12-13T17:37:22.300Z,71.35
2018-12-13T17:39:52.030Z,71.53
2018-12-13T17:42:22.396Z,72.25
2018-12-13T17:44:52.380Z,72.37
2018-12-13T17:47:22.134Z,72.95
2018-12-13T17:49:52.052Z,73.09
2018-12-13T17:52:21.862Z,73.46
2018-12-13T17:54:52.549Z,73.52
2018-12-13T17:57:22.333Z,73.15
2018-12-13T17:59:52.216Z,73.31
2018-12-13T18:02:22.041Z,72.84
2018-12-13T18:07:41.169Z,73.16
2018-12-13T18:10:12.388Z,73.51
2018-12-13T18:12:42.132Z,73.31
2018-12-13T18:15:12.033Z,73.77
2018-12-13T18:17:41.862Z,72.73
2018-12-13T18:20:11.953Z,72.78
2018-12-13T18:22:41.950Z,72.48
2018-12-13T18:25:12.025Z,72.17
2018-12-13T18:27:41.947Z,72.35
2018-12-13T18:30:12.212Z,72.70
2018-12-13T18:32:41.953Z,73.00
2018-12-13T18:35:11.771Z,72.07
2018-12-13T18:37:41.612Z,71.62
2018-12-13T18:40:11.726Z,72.07
2018-12-13T18:42:41.569Z,71.79
2018-12-13T18:45:11.540Z,71.83
2018-12-13T18:47:41.329Z,71.89
2018-12-13T18:50:11.219Z,71.97
2018-12-13T18:52:40.957Z,71.27
2018-12-13T18:55:10.741Z,70.72
2018-12-13T18:57:40.474Z,71.68
2018-12-13T19:00:11.042Z,71.25
2018-12-13T19:02:40.867Z,70.89
2018-12-13T19:05:10.696Z,70.80
2018-12-13T19:07:40.574Z,71.46
2018-12-13T19:10:10.468Z,71.12
2018-12-13T19:12:40.354Z,71.05
2018-12-13T19:15:10.284Z,71.23
2018-12-13T19:17:40.116Z,71.42
2018-12-13T19:20:10.511Z,72.01
2018-12-13T19:22:40.454Z,71.75
2018-12-13T19:25:11.557Z,72.49
2018-12-13T19:27:41.599Z,72.68
2018-12-13T19:30:11.705Z,72.61
2018-12-13T19:32:41.643Z,72.78
2018-12-13T19:35:11.622Z,72.86
2018-12-13T19:37:41.708Z,72.96
2018-12-13T19:40:11.661Z,73.39
2018-12-13T19:42:41.580Z,73.30
2018-12-13T19:45:11.406Z,73.34
2018-12-13T19:47:41.084Z,73.13
2018-12-13T19:50:10.801Z,73.47
2018-12-13T19:52:40.720Z,74.16
2018-12-13T19:55:10.558Z,74.02
2018-12-13T19:57:40.517Z,74.22
2018-12-13T20:00:10.966Z,74.82
2018-12-13T20:02:40.744Z,74.61
2018-12-13T20:05:10.689Z,74.04
2018-12-13T20:07:40.438Z,74.38
2018-12-13T20:10:11.000Z,74.68
2018-12-13T20:12:40.826Z,74.45
2018-12-13T20:15:10.924Z,74.84
2018-12-13T20:17:40.732Z,74.52
2018-12-13T20:20:10.750Z,74.92
2018-12-13T20:22:40.677Z,74.97
2018-12-13T20:25:10.862Z,74.56
2018-12-13T20:27:40.606Z,75.56
2018-12-13T20:30:11.482Z,75.67
2018-12-13T20:32:41.250Z,76.18
2018-12-13T20:35:11.352Z,76.01
2018-12-13T20:37:41.295Z,76.74
2018-12-13T20:40:11.131Z,77.00
2018-12-13T20:42:41.090Z,77.23
2018-12-13T20:45:11.483Z,77.59
2018-12-13T20:47:41.340Z,77.59
2018-12-13T20:50:11.381Z,77.43
2018-12-13T20:52:41.279Z,77.70
2018-12-13T20:55:11.151Z,77.67
2018-12-13T20:57:40.858Z,77.80
2018-12-13T21:00:12.531Z,78.24
2018-12-13T21:02:43.223Z,78.05
2018-12-13T21:05:13.129Z,78.89
2018-12-13T21:07:42.956Z,79.24
2018-12-13T21:10:12.825Z,79.18
2018-12-13T21:12:42.617Z,79.77
2018-12-13T21:15:12.804Z,80.10
2018-12-13T21:17:42.691Z,79.66
2018-12-13T21:20:12.513Z,80.21
2018-12-13T21:22:42.785Z,80.22
2018-12-13T21:25:12.642Z,80.00
2018-12-13T21:27:42.492Z,80.32
2018-12-13T21:30:12.566Z,80.93
2018-12-13T21:32:43.040Z,81.20
2018-12-13T21:35:12.868Z,80.60
2018-12-13T21:37:42.601Z,80.71
2018-12-13T21:40:12.554Z,81.10
2018-12-13T21:42:42.352Z,80.83
2018-12-13T21:45:12.376Z,81.66
2018-12-13T21:47:42.160Z,81.20
2018-12-13T21:50:11.978Z,81.47
2018-12-13T21:52:41.964Z,81.44
2018-12-13T21:55:11.869Z,81.74
2018-12-13T21:57:42.185Z,81.43
2018-12-13T22:00:13.042Z,81.62
2018-12-13T22:02:43.956Z,81.55
2018-12-13T22:05:13.804Z,81.54
2018-12-13T22:07:43.567Z,81.17
2018-12-13T22:10:13.593Z,81.29
2018-12-13T22:12:43.856Z,81.37
2018-12-13T22:15:14.316Z,81.35
2018-12-13T22:17:44.208Z,81.27
2018-12-13T22:20:15.093Z,81.65
2018-12-13T22:22:44.899Z,81.65
2018-12-13T22:25:14.920Z,81.69
2018-12-13T22:27:44.736Z,81.52
2018-12-13T22:30:15.500Z,81.51
2018-12-13T22:32:45.232Z,82.36
2018-12-13T22:35:15.081Z,82.19
2018-12-13T22:37:44.924Z,82.31
2018-12-13T22:40:15.030Z,82.67
2018-12-13T22:42:44.882Z,82.33
2018-12-13T22:45:15.319Z,83.05
2018-12-13T22:47:45.178Z,82.51
2018-12-13T22:50:15.188Z,82.26
2018-12-13T22:52:45.171Z,82.75
2018-12-13T22:55:15.114Z,82.71
2018-12-13T22:57:44.905Z,82.23
2018-12-13T23:00:14.845Z,82.48
2018-12-13T23:02:44.698Z,82.91
2018-12-13T23:05:14.612Z,82.63
2018-12-13T23:07:44.316Z,82.34
2018-12-13T23:10:14.105Z,82.15
2018-12-13T23:12:44.593Z,82.14
2018-12-13T23:15:14.629Z,82.09
2018-12-13T23:17:44.420Z,82.02
2018-12-13T23:20:14.761Z,81.98
2018-12-13T23:22:44.647Z,82.31
2018-12-13T23:25:14.441Z,82.91
2018-12-13T23:27:44.269Z,82.79
2018-12-13T23:30:14.189Z,82.72
2018-12-13T23:32:44.018Z,82.57
2018-12-13T23:35:14.062Z,82.52
2018-12-13T23:37:44.679Z,82.91
2018-12-13T23:40:14.660Z,82.17
2018-12-13T23:42:44.418Z,82.36
2018-12-13T23:45:14.453Z,82.51
2018-12-13T23:47:44.215Z,82.94
2018-12-13T23:50:14.299Z,82.82
2018-12-13T23:52:44.187Z,83.48
2018-12-13T23:55:13.888Z,83.28
2018-12-13T23:57:43.812Z,83.11
